Schneifelwetter: Wetterstation Hallschlag, 537 m . NN
Wetterdaten: Samstag, 07.06.2008
Datum Zeit Temp. A. Temp. 2 Feuchte A. Luftdruck Regen Wind Richtung Richtung Sonnenschein Helligkeit T Regen Taupunkt Windchill
07.06.2008 00:01 13,3 C 13,3 C 95 % 1013 hPa 0,0 l/m 9,1 km/h (2 Bft) NW22.5 305 0 min 0 lux 0,00 min 12,5 C 11,7 C
07.06.2008 00:16 13,1 C 13,1 C 95 % 1013 hPa 0,0 l/m 2,5 km/h (1 Bft) NW 320 0 min 0 lux 0,00 min 12,3 C 13,1 C
07.06.2008 00:31 13,0 C 13,0 C 95 % 1013 hPa 0,0 l/m 6,6 km/h (2 Bft) NW22.5 310 0 min 0 lux 0,00 min 12,2 C 12,9 C
07.06.2008 00:46 12,8 C 12,9 C 95 % 1013 hPa 0,0 l/m 7,2 km/h (2 Bft) NW22.5 305 0 min 0 lux 0,00 min 12,0 C 12,3 C
07.06.2008 01:01 12,8 C 12,8 C 95 % 1013 hPa 0,0 l/m 4,2 km/h (1 Bft) W 275 0 min 0 lux 0,00 min 12,0 C 12,8 C
07.06.2008 01:16 12,7 C 12,7 C 96 % 1013 hPa 0,0 l/m 4,5 km/h (1 Bft) W 275 0 min 0 lux 0,00 min 12,1 C 12,7 C
07.06.2008 01:31 12,7 C 12,5 C 96 % 1013 hPa 0,0 l/m 5,4 km/h (1 Bft) W 260 0 min 0 lux 0,00 min 12,1 C 12,7 C
07.06.2008 01:46 12,6 C 12,5 C 96 % 1013 hPa 0,0 l/m 5,0 km/h (1 Bft) W 260 0 min 0 lux 0,00 min 12,0 C 12,6 C
07.06.2008 02:01 12,6 C 12,4 C 96 % 1013 hPa 0,0 l/m 6,9 km/h (2 Bft) W-SW 250 0 min 0 lux 0,00 min 12,0 C 12,3 C
07.06.2008 02:16 12,5 C 12,2 C 96 % 1013 hPa 0,0 l/m 10,3 km/h (2 Bft) W-SW22.5 250 0 min 0 lux 0,00 min 11,9 C 10,2 C
07.06.2008 02:31 12,4 C 12,0 C 96 % 1013 hPa 0,0 l/m 10,6 km/h (2 Bft) W-SW22.5 250 0 min 0 lux 0,00 min 11,8 C 9,9 C
07.06.2008 02:46 12,2 C 11,9 C 95 % 1013 hPa 0,0 l/m 7,3 km/h (2 Bft) W-SW 240 0 min 0 lux 0,00 min 11,4 C 11,6 C
07.06.2008 03:01 12,1 C 11,8 C 95 % 1013 hPa 0,0 l/m 8,3 km/h (2 Bft) W-SW 250 0 min 0 lux 0,00 min 11,3 C 10,9 C
07.06.2008 03:16 12,0 C 11,8 C 95 % 1013 hPa 0,0 l/m 9,4 km/h (2 Bft) W 260 0 min 0 lux 0,00 min 11,2 C 10,1 C
07.06.2008 03:31 12,0 C 11,8 C 96 % 1013 hPa 0,0 l/m 8,9 km/h (2 Bft) W-SW 255 0 min 0 lux 0,00 min 11,4 C 10,4 C
07.06.2008 03:46 12,0 C 11,8 C 96 % 1013 hPa 0,0 l/m 13,3 km/h (3 Bft) W-SW22.5 250 0 min 0 lux 0,00 min 11,4 C 8,2 C
07.06.2008 04:01 11,9 C 11,7 C 96 % 1013 hPa 0,0 l/m 10,0 km/h (2 Bft) W-SW22.5 255 0 min 0 lux 0,00 min 11,3 C 9,7 C
07.06.2008 04:16 11,8 C 11,6 C 96 % 1013 hPa 0,0 l/m 10,5 km/h (2 Bft) W-SW22.5 250 0 min 0 lux 0,00 min 11,2 C 9,3 C
07.06.2008 04:31 11,7 C 11,5 C 96 % 1013 hPa 0,0 l/m 14,7 km/h (3 Bft) W-SW22.5 255 0 min 0 lux 0,00 min 11,1 C 7,3 C
07.06.2008 04:46 11,6 C 11,4 C 96 % 1013 hPa 0,0 l/m 14,3 km/h (3 Bft) W-SW22.5 255 0 min 0 lux 0,00 min 11,0 C 7,4 C
07.06.2008 05:02 11,6 C 11,3 C 96 % 1013 hPa 0,0 l/m 9,5 km/h (2 Bft) W22.5 260 0 min 0 lux 0,00 min 11,0 C 9,6 C
07.06.2008 05:17 11,4 C 11,2 C 96 % 1013 hPa 0,0 l/m 11,4 km/h (2 Bft) W22.5 260 0 min 45 lux 0,00 min 10,8 C 8,4 C
07.06.2008 05:32 11,4 C 11,2 C 96 % 1013 hPa 0,0 l/m 7,8 km/h (2 Bft) W22.5 270 0 min 157 lux 0,00 min 10,8 C 10,5 C
07.06.2008 05:47 11,4 C 11,2 C 96 % 1013 hPa 0,0 l/m 7,9 km/h (2 Bft) W22.5 260 0 min 338 lux 0,00 min 10,8 C 10,4 C
07.06.2008 06:02 11,4 C 11,2 C 96 % 1013 hPa 0,0 l/m 8,5 km/h (2 Bft) W-SW 255 0 min 638 lux 0,00 min 10,8 C 10,0 C
07.06.2008 06:17 11,4 C 11,1 C 96 % 1013 hPa 0,0 l/m 6,4 km/h (2 Bft) W 260 0 min 817 lux 0,00 min 10,8 C 11,4 C
07.06.2008 06:32 11,4 C 11,2 C 96 % 1013 hPa 0,0 l/m 5,8 km/h (2 Bft) W-SW 250 0 min 1,43 klux 0,00 min 10,8 C 11,4 C
07.06.2008 06:47 11,4 C 11,2 C 96 % 1013 hPa 0,0 l/m 6,7 km/h (2 Bft) W-SW 240 0 min 2,12 klux 0,00 min 10,8 C 11,2 C
07.06.2008 07:02 11,5 C 11,3 C 96 % 1013 hPa 0,0 l/m 4,9 km/h (1 Bft) W-SW 240 0 min 2,55 klux 0,00 min 10,9 C 11,5 C
07.06.2008 07:17 11,6 C 11,4 C 96 % 1013 hPa 0,0 l/m 5,6 km/h (1 Bft) W-SW 240 0 min 2,91 klux 0,00 min 11,0 C 11,6 C
07.06.2008 07:32 11,6 C 11,4 C 96 % 1013 hPa 0,0 l/m 6,1 km/h (2 Bft) W-SW 250 0 min 2,55 klux 0,00 min 11,0 C 11,6 C
07.06.2008 07:46 11,6 C 11,4 C 96 % 1014 hPa 0,0 l/m 6,7 km/h (2 Bft) W-SW 250 0 min 2,86 klux 0,00 min 11,0 C 11,4 C
07.06.2008 08:01 11,7 C 11,5 C 96 % 1014 hPa 0,0 l/m 5,2 km/h (1 Bft) W-SW 245 0 min 5,51 klux 0,00 min 11,1 C 11,7 C
07.06.2008 08:16 11,9 C 11,6 C 96 % 1014 hPa 0,3 l/m 5,3 km/h (1 Bft) W-SW 250 0 min 5,94 klux 15,00 min 11,3 C 11,9 C
07.06.2008 08:31 12,0 C 11,7 C 95 % 1014 hPa 0,0 l/m 7,1 km/h (2 Bft) W22.5 265 0 min 5,59 klux 0,00 min 11,2 C 11,5 C
07.06.2008 08:46 12,0 C 11,8 C 95 % 1014 hPa 0,0 l/m 6,5 km/h (2 Bft) W 265 0 min 5,90 klux 0,00 min 11,2 C 12,0 C
07.06.2008 09:01 12,3 C 12,0 C 95 % 1014 hPa 0,0 l/m 5,1 km/h (1 Bft) W-SW 250 0 min 11,5 klux 0,00 min 11,5 C 12,3 C
07.06.2008 09:16 12,8 C 12,6 C 95 % 1014 hPa 0,0 l/m 6,3 km/h (2 Bft) W-SW 250 0 min 14,0 klux 0,00 min 12,0 C 12,8 C
07.06.2008 09:31 13,1 C 13,0 C 94 % 1014 hPa 0,0 l/m 6,8 km/h (2 Bft) W 260 0 min 15,0 klux 0,00 min 12,2 C 12,9 C
07.06.2008 09:46 12,9 C 12,9 C 94 % 1015 hPa 0,0 l/m 11,8 km/h (2 Bft) SW22.5 230 0 min 11,3 klux 0,00 min 12,0 C 9,9 C
07.06.2008 10:01 12,6 C 12,5 C 93 % 1015 hPa 0,0 l/m 12,3 km/h (3 Bft) W-SW22.5 250 0 min 5,30 klux 0,00 min 11,5 C 9,4 C
07.06.2008 10:16 12,4 C 12,2 C 93 % 1014 hPa 0,0 l/m 7,9 km/h (2 Bft) W-SW 250 0 min 8,10 klux 0,00 min 11,3 C 11,4 C
07.06.2008 10:31 12,6 C 12,4 C 94 % 1015 hPa 0,3 l/m 7,4 km/h (2 Bft) W22.5 265 0 min 15,0 klux 15,00 min 11,7 C 12,0 C
07.06.2008 10:46 13,0 C 12,8 C 94 % 1015 hPa 0,3 l/m 6,9 km/h (2 Bft) W22.5 270 0 min 20,2 klux 15,00 min 12,1 C 12,7 C
07.06.2008 11:01 13,6 C 13,3 C 94 % 1015 hPa 0,0 l/m 8,0 km/h (2 Bft) W-SW22.5 255 0 min 23,4 klux 0,00 min 12,7 C 12,6 C
07.06.2008 11:16 14,2 C 14,2 C 93 % 1015 hPa 0,0 l/m 9,6 km/h (2 Bft) W-SW22.5 250 0 min 26,1 klux 0,00 min 13,1 C 12,4 C
07.06.2008 11:31 15,1 C 15,4 C 92 % 1015 hPa 0,0 l/m 10,6 km/h (2 Bft) W-SW 255 0 min 41,7 klux 0,00 min 13,8 C 13,0 C
07.06.2008 11:46 15,8 C 16,4 C 89 % 1015 hPa 0,0 l/m 9,1 km/h (2 Bft) W-SW22.5 255 0 min 40,3 klux 0,00 min 14,0 C 14,4 C
07.06.2008 12:01 16,0 C 16,6 C 87 % 1015 hPa 0,0 l/m 11,6 km/h (2 Bft) W22.5 260 0 min 37,5 klux 0,00 min 13,8 C 13,6 C
07.06.2008 12:16 16,3 C 17,0 C 87 % 1015 hPa 0,0 l/m 8,9 km/h (2 Bft) W-SW22.5 250 0 min 33,6 klux 0,00 min 14,1 C 15,0 C
07.06.2008 12:32 16,7 C 17,3 C 84 % 1015 hPa 0,0 l/m 9,8 km/h (2 Bft) W22.5 260 0 min 36,2 klux 0,00 min 14,0 C 15,1 C
07.06.2008 12:46 17,0 C 18,0 C 84 % 1015 hPa 0,0 l/m 6,0 km/h (2 Bft) W 265 0 min 41,1 klux 0,00 min 14,3 C 17,0 C
07.06.2008 13:01 17,4 C 18,4 C 82 % 1015 hPa 0,0 l/m 8,6 km/h (2 Bft) W22.5 260 0 min 40,9 klux 0,00 min 14,3 C 16,4 C
07.06.2008 13:16 17,6 C 18,6 C 81 % 1015 hPa 0,0 l/m 4,2 km/h (1 Bft) W-SW22.5 240 0 min 32,1 klux 0,00 min 14,3 C 17,6 C
07.06.2008 13:31 17,9 C 19,1 C 80 % 1015 hPa 0,0 l/m 0,4 km/h (0 Bft) W-NW 285 0 min 39,9 klux 0,00 min 14,4 C 17,9 C
07.06.2008 13:46 18,8 C 20,1 C 79 % 1015 hPa 0,0 l/m 6,1 km/h (2 Bft) SW22.5 215 0 min 49,0 klux 0,00 min 15,1 C 18,8 C
07.06.2008 14:01 19,2 C 20,7 C 75 % 1015 hPa 0,0 l/m 9,0 km/h (2 Bft) W22.5 260 0 min 59,8 klux 0,00 min 14,7 C 18,1 C
07.06.2008 14:17 19,6 C 21,4 C 74 % 1015 hPa 0,0 l/m 6,7 km/h (2 Bft) W-SW22.5 240 0 min 57,6 klux 0,00 min 14,8 C 19,5 C
07.06.2008 14:31 20,0 C 21,6 C 74 % 1015 hPa 0,0 l/m 11,0 km/h (2 Bft) W-SW22.5 255 0 min 57,5 klux 0,00 min 15,2 C 18,3 C
07.06.2008 14:46 20,2 C 21,1 C 75 % 1015 hPa 0,0 l/m 17,6 km/h (3 Bft) W22.5 260 0 min 51,7 klux 0,00 min 15,6 C 16,9 C
07.06.2008 15:01 19,9 C 20,5 C 74 % 1015 hPa 0,0 l/m 18,1 km/h (3 Bft) W-SW22.5 250 0 min 50,0 klux 0,00 min 15,1 C 16,4 C
07.06.2008 15:16 19,8 C 20,5 C 74 % 1015 hPa 0,0 l/m 17,5 km/h (3 Bft) W-SW22.5 245 0 min 53,7 klux 0,00 min 15,0 C 16,4 C
07.06.2008 15:31 19,2 C 20,1 C 75 % 1014 hPa 0,0 l/m 24,0 km/h (4 Bft) W-SW45 250 0 min 49,5 klux 0,00 min 14,7 C 14,5 C
07.06.2008 15:46 18,1 C 19,0 C 75 % 1015 hPa 0,0 l/m 21,9 km/h (4 Bft) W22.5 265 0 min 30,4 klux 0,00 min 13,6 C 13,4 C
07.06.2008 16:01 17,7 C 18,6 C 77 % 1015 hPa 0,0 l/m 18,8 km/h (3 Bft) W22.5 270 0 min 33,5 klux 0,00 min 13,6 C 13,5 C
07.06.2008 16:17 17,6 C 18,3 C 77 % 1015 hPa 0,0 l/m 16,1 km/h (3 Bft) W-SW22.5 255 0 min 36,3 klux 0,00 min 13,5 C 14,0 C
07.06.2008 16:31 16,7 C 17,6 C 78 % 1015 hPa 0,0 l/m 16,4 km/h (3 Bft) W45 260 0 min 18,9 klux 0,00 min 12,8 C 12,9 C
07.06.2008 16:46 16,2 C 17,1 C 80 % 1015 hPa 0,0 l/m 11,7 km/h (2 Bft) W45 265 0 min 17,7 klux 0,00 min 12,7 C 13,8 C
07.06.2008 17:01 16,2 C 16,9 C 81 % 1015 hPa 0,0 l/m 12,4 km/h (3 Bft) W22.5 270 0 min 18,3 klux 0,00 min 12,9 C 13,5 C
07.06.2008 17:16 16,6 C 17,2 C 80 % 1015 hPa 0,0 l/m 14,8 km/h (3 Bft) W22.5 265 0 min 26,8 klux 0,00 min 13,1 C 13,2 C
07.06.2008 17:31 16,6 C 17,2 C 80 % 1015 hPa 0,0 l/m 14,4 km/h (3 Bft) W22.5 265 0 min 22,5 klux 0,00 min 13,1 C 13,3 C
07.06.2008 17:46 16,8 C 17,4 C 80 % 1015 hPa 0,0 l/m 16,6 km/h (3 Bft) W22.5 260 0 min 34,0 klux 0,00 min 13,3 C 12,9 C
07.06.2008 18:02 16,5 C 17,1 C 79 % 1015 hPa 0,0 l/m 17,7 km/h (3 Bft) W45 275 0 min 25,6 klux 0,00 min 12,8 C 12,3 C
07.06.2008 18:16 16,6 C 17,4 C 79 % 1015 hPa 0,0 l/m 17,6 km/h (3 Bft) W22.5 270 0 min 32,8 klux 0,00 min 12,9 C 12,4 C
07.06.2008 18:31 16,5 C 17,3 C 80 % 1015 hPa 0,0 l/m 16,2 km/h (3 Bft) W45 265 0 min 28,3 klux 0,00 min 13,0 C 12,7 C
07.06.2008 18:46 16,2 C 17,1 C 80 % 1015 hPa 0,0 l/m 15,5 km/h (3 Bft) W-NW45 290 0 min 28,8 klux 0,00 min 12,7 C 12,5 C
07.06.2008 19:01 15,6 C 16,7 C 81 % 1015 hPa 0,0 l/m 18,6 km/h (3 Bft) W22.5 260 0 min 19,6 klux 0,00 min 12,3 C 10,9 C
07.06.2008 19:16 15,1 C 15,9 C 83 % 1015 hPa 0,0 l/m 12,1 km/h (2 Bft) W22.5 270 0 min 15,6 klux 0,00 min 12,2 C 12,3 C
07.06.2008 19:31 15,5 C 16,3 C 83 % 1015 hPa 0,0 l/m 13,3 km/h (3 Bft) W22.5 270 0 min 20,7 klux 0,00 min 12,6 C 12,4 C
07.06.2008 19:46 15,4 C 16,5 C 82 % 1016 hPa 0,0 l/m 12,3 km/h (3 Bft) W45 280 0 min 19,6 klux 0,00 min 12,3 C 12,6 C
07.06.2008 20:02 15,0 C 15,5 C 83 % 1016 hPa 0,0 l/m 12,5 km/h (3 Bft) W-NW22.5 285 0 min 11,8 klux 0,00 min 12,1 C 12,1 C
07.06.2008 20:16 14,5 C 15,0 C 84 % 1016 hPa 0,0 l/m 12,8 km/h (3 Bft) W45 280 0 min 10,0 klux 0,00 min 11,8 C 11,4 C
07.06.2008 20:31 14,0 C 14,5 C 85 % 1016 hPa 0,0 l/m 12,4 km/h (3 Bft) W45 270 0 min 7,36 klux 0,00 min 11,5 C 11,0 C
07.06.2008 20:46 13,8 C 13,9 C 86 % 1016 hPa 0,0 l/m 6,8 km/h (2 Bft) W22.5 275 0 min 3,45 klux 0,00 min 11,5 C 13,6 C
07.06.2008 21:01 13,3 C 13,2 C 86 % 1016 hPa 0,0 l/m 5,2 km/h (1 Bft) W-NW 295 0 min 3,01 klux 0,00 min 11,0 C 13,3 C
07.06.2008 21:16 13,0 C 12,3 C 86 % 1016 hPa 0,0 l/m 0,1 km/h (0 Bft) W 275 0 min 2,82 klux 0,00 min 10,7 C 13,0 C
07.06.2008 21:31 12,3 C 11,6 C 87 % 1016 hPa 0,0 l/m 0,3 km/h (0 Bft) W 280 0 min 1,47 klux 0,00 min 10,2 C 12,3 C
07.06.2008 21:47 12,0 C 11,2 C 89 % 1017 hPa 0,0 l/m 0,0 km/h (0 Bft) W 280 0 min 522 lux 0,00 min 10,2 C 12,0 C
07.06.2008 22:01 11,8 C 11,1 C 89 % 1017 hPa 0,0 l/m 0,0 km/h (0 Bft) W 280 0 min 258 lux 0,00 min 10,0 C 11,8 C
07.06.2008 22:16 11,8 C 11,3 C 90 % 1017 hPa 0,0 l/m 2,7 km/h (1 Bft) W 280 0 min 41 lux 0,00 min 10,2 C 11,8 C
07.06.2008 22:31 11,9 C 11,2 C 90 % 1017 hPa 0,0 l/m 3,6 km/h (1 Bft) W 270 0 min 9 lux 0,00 min 10,3 C 11,9 C
07.06.2008 22:46 11,8 C 11,1 C 91 % 1017 hPa 0,0 l/m 6,2 km/h (2 Bft) W22.5 270 0 min 0 lux 0,00 min 10,4 C 11,8 C
07.06.2008 23:01 11,7 C 10,8 C 91 % 1017 hPa 0,0 l/m 0,1 km/h (0 Bft) W-NW22.5 285 0 min 0 lux 0,00 min 10,3 C 11,7 C
07.06.2008 23:16 11,4 C 10,5 C 91 % 1017 hPa 0,0 l/m 0,9 km/h (0 Bft) W-NW22.5 300 0 min 0 lux 0,00 min 10,0 C 11,4 C
07.06.2008 23:31 11,5 C 10,7 C 92 % 1017 hPa 0,0 l/m 5,0 km/h (1 Bft) N-NW22.5 345 0 min 0 lux 0,00 min 10,2 C 11,5 C
07.06.2008 23:47 11,6 C 11,0 C 93 % 1017 hPa 0,0 l/m 1,3 km/h (1 Bft) W-NW45 290 0 min 0 lux 0,00 min 10,5 C 11,6 C
_ Min-Zeit 05:17 23:16 14:17 00:01 - 21:47 - - - - - 23:16 04:31
Minimum _ 11,4 C 10,5 C 74 % 1013 hPa - 0,0 km/h (0 Bft) - - - - - 10,0 C 7,3 C
_ Max-Zeit 14:46 14:31 01:16 21:47 08:16 15:31 - - 00:01 14:01 08:16 14:46 14:17
Maximum _ 20,2 C 21,6 C 96 % 1017 hPa 0,3 l/m 24,0 km/h
W-SW (4 Bft)
- - 0 min 59,8 klux 15,00 min 15,6 C 19,5 C
Durchschnitt _ 14,1 C 14,2 C 89 % 1015 hPa #0,9 l/m 9,1 km/h (2 Bft) W - #0 min. 14,9 klux #45 min. 12,2 C 12,5 C